createdAt,value
2019-02-28T00:00:47.514Z,7.50
2019-02-28T00:01:47.487Z,7.43
2019-02-28T00:02:47.445Z,7.40
2019-02-28T00:03:47.412Z,7.45
2019-02-28T00:04:47.370Z,7.40
2019-02-28T00:05:47.339Z,7.35
2019-02-28T00:06:47.309Z,7.36
2019-02-28T00:07:49.656Z,7.36
2019-02-28T00:08:47.241Z,7.32
2019-02-28T00:09:47.216Z,7.33
2019-02-28T00:10:47.154Z,7.35
2019-02-28T00:11:47.133Z,7.23
2019-02-28T00:12:48.046Z,7.25
2019-02-28T00:13:47.054Z,7.24
2019-02-28T00:14:47.018Z,7.21
2019-02-28T00:15:46.981Z,7.25
2019-02-28T00:16:46.960Z,7.24
2019-02-28T00:17:46.908Z,7.17
2019-02-28T00:18:49.521Z,7.15
2019-02-28T00:19:46.838Z,7.20
2019-02-28T00:20:46.799Z,7.20
2019-02-28T00:21:46.766Z,7.18
2019-02-28T00:22:49.182Z,7.15
2019-02-28T00:23:46.714Z,7.17
2019-02-28T00:24:46.669Z,7.15
2019-02-28T00:25:46.630Z,7.17
2019-02-28T00:26:47.726Z,7.20
2019-02-28T00:27:46.554Z,7.15
2019-02-28T00:28:46.524Z,7.14
2019-02-28T00:29:46.489Z,7.15
2019-02-28T00:30:46.450Z,7.15
2019-02-28T00:31:49.314Z,7.14
2019-02-28T00:32:46.375Z,7.20
2019-02-28T00:33:46.335Z,7.14
2019-02-28T00:34:46.301Z,7.10
2019-02-28T00:35:46.276Z,7.17
2019-02-28T00:36:46.236Z,7.07
2019-02-28T00:37:46.202Z,7.18
2019-02-28T00:38:46.179Z,7.14
2019-02-28T00:39:46.134Z,7.11
2019-02-28T00:40:46.092Z,7.15
2019-02-28T00:41:46.056Z,7.14
2019-02-28T00:42:48.044Z,7.18
2019-02-28T00:43:45.976Z,7.05
2019-02-28T00:44:45.947Z,7.02
2019-02-28T00:45:45.910Z,7.02
2019-02-28T00:46:45.882Z,7.07
2019-02-28T00:47:47.529Z,7.20
2019-02-28T00:48:45.808Z,7.02
2019-02-28T00:49:45.761Z,7.02
2019-02-28T00:50:45.738Z,7.06
2019-02-28T00:51:45.701Z,7.13
2019-02-28T00:52:45.666Z,6.99
2019-02-28T00:53:45.623Z,7.00
2019-02-28T00:54:45.598Z,7.00
2019-02-28T00:55:46.246Z,7.03
2019-02-28T00:56:51.535Z,7.10
2019-02-28T00:57:45.487Z,7.05
2019-02-28T00:58:45.441Z,7.14
2019-02-28T00:59:45.418Z,7.05
2019-02-28T01:00:45.372Z,7.02
2019-02-28T01:01:45.866Z,6.96
2019-02-28T01:02:45.297Z,6.96
2019-02-28T01:03:45.261Z,7.03
2019-02-28T01:04:45.228Z,7.00
2019-02-28T01:05:45.198Z,7.03
2019-02-28T01:06:45.161Z,6.92
2019-02-28T01:07:48.130Z,6.95
2019-02-28T01:08:45.078Z,6.99
2019-02-28T01:09:45.066Z,6.95
2019-02-28T01:10:45.014Z,6.88
2019-02-28T01:11:45.641Z,6.92
2019-02-28T01:12:44.946Z,6.89
2019-02-28T01:13:44.918Z,6.88
2019-02-28T01:14:44.873Z,6.88
2019-02-28T01:15:45.748Z,6.84
2019-02-28T01:16:44.801Z,6.89
2019-02-28T01:17:44.767Z,6.87
2019-02-28T01:18:44.724Z,6.84
2019-02-28T01:19:44.687Z,6.95
2019-02-28T01:20:49.950Z,6.82
2019-02-28T01:21:44.618Z,6.85
2019-02-28T01:22:44.587Z,6.82
2019-02-28T01:23:44.557Z,6.82
2019-02-28T01:24:44.522Z,6.85
2019-02-28T01:25:44.483Z,6.87
2019-02-28T01:26:46.709Z,6.84
2019-02-28T01:27:44.413Z,6.88
2019-02-28T01:28:44.379Z,6.81
2019-02-28T01:29:44.333Z,6.81
2019-02-28T01:30:44.294Z,6.82
2019-02-28T01:31:44.263Z,6.87
2019-02-28T01:32:44.226Z,6.92
2019-02-28T01:33:44.192Z,6.84
2019-02-28T01:34:44.155Z,6.87
2019-02-28T01:35:44.129Z,6.78
2019-02-28T01:36:45.887Z,6.75
2019-02-28T01:37:44.049Z,6.79
2019-02-28T01:38:44.014Z,6.74
2019-02-28T01:39:43.978Z,6.75
2019-02-28T01:40:43.940Z,6.82
2019-02-28T01:41:45.145Z,6.74
2019-02-28T01:42:43.872Z,6.72
2019-02-28T01:43:43.836Z,6.74
2019-02-28T01:44:43.794Z,6.77
2019-02-28T01:45:44.405Z,6.63
2019-02-28T01:46:43.731Z,6.60
2019-02-28T01:47:43.690Z,6.56
2019-02-28T01:48:43.650Z,6.49
2019-02-28T01:49:43.614Z,6.57
2019-02-28T01:50:43.579Z,6.59
2019-02-28T01:51:43.541Z,6.57
2019-02-28T01:52:45.897Z,6.59
2019-02-28T01:53:43.475Z,6.48
2019-02-28T01:54:43.444Z,6.45
2019-02-28T01:55:43.406Z,6.45
2019-02-28T01:56:43.374Z,6.46
2019-02-28T01:57:44.342Z,6.48
2019-02-28T01:58:43.294Z,6.42
2019-02-28T01:59:43.259Z,6.45
2019-02-28T02:00:43.223Z,6.42
2019-02-28T02:01:43.180Z,6.42
2019-02-28T02:02:43.153Z,6.41
2019-02-28T02:03:43.115Z,6.46
2019-02-28T02:04:45.544Z,6.42
2019-02-28T02:05:43.047Z,6.41
2019-02-28T02:06:42.999Z,6.39
2019-02-28T02:07:42.979Z,6.42
2019-02-28T02:08:42.942Z,6.39
2019-02-28T02:09:46.148Z,6.38
2019-02-28T02:10:42.857Z,6.36
2019-02-28T02:11:42.821Z,6.39
2019-02-28T02:12:42.786Z,6.39
2019-02-28T02:13:42.754Z,6.44
2019-02-28T02:14:45.684Z,6.46
2019-02-28T02:15:42.676Z,6.42
2019-02-28T02:16:42.644Z,6.41
2019-02-28T02:17:42.609Z,6.33
2019-02-28T02:18:43.388Z,6.33
2019-02-28T02:19:42.527Z,6.27
2019-02-28T02:20:42.491Z,6.30
2019-02-28T02:21:42.461Z,6.24
2019-02-28T02:22:44.522Z,6.20
2019-02-28T02:23:42.388Z,6.16
2019-02-28T02:24:42.363Z,6.20
2019-02-28T02:25:42.312Z,6.26
2019-02-28T02:26:45.235Z,6.16
2019-02-28T02:27:42.237Z,6.17
2019-02-28T02:28:42.208Z,6.19
2019-02-28T02:29:42.183Z,6.17
2019-02-28T02:30:42.128Z,6.12
2019-02-28T02:31:43.552Z,6.16
2019-02-28T02:32:42.059Z,6.16
2019-02-28T02:33:42.041Z,6.12
2019-02-28T02:34:41.988Z,6.16
2019-02-28T02:35:43.526Z,6.19
2019-02-28T02:36:41.926Z,6.16
2019-02-28T02:37:41.881Z,6.09
2019-02-28T02:38:41.902Z,6.11
2019-02-28T02:39:41.809Z,6.20
2019-02-28T02:40:41.776Z,6.11
2019-02-28T02:41:41.743Z,6.16
2019-02-28T02:42:47.241Z,6.09
2019-02-28T02:43:41.662Z,6.05
2019-02-28T02:44:41.627Z,6.02
2019-02-28T02:45:43.476Z,5.97
2019-02-28T02:46:41.558Z,5.93
2019-02-28T02:47:41.517Z,5.91
2019-02-28T02:48:42.304Z,5.97
2019-02-28T02:49:41.453Z,5.90
2019-02-28T02:50:41.412Z,5.90
2019-02-28T02:51:49.138Z,5.93
2019-02-28T02:52:41.335Z,5.89
2019-02-28T02:53:42.154Z,5.97
2019-02-28T02:54:41.258Z,5.86
2019-02-28T02:55:41.233Z,5.80
2019-02-28T02:56:42.180Z,5.79
2019-02-28T02:57:41.154Z,5.69
2019-02-28T02:58:41.112Z,5.75
2019-02-28T02:59:41.088Z,5.73
2019-02-28T03:00:41.051Z,5.65
2019-02-28T03:01:41.005Z,5.53
2019-02-28T03:02:40.963Z,5.56
2019-02-28T03:03:44.356Z,5.43
2019-02-28T03:04:40.923Z,5.48
2019-02-28T03:05:40.857Z,5.44
2019-02-28T03:06:40.819Z,5.44
2019-02-28T03:07:40.806Z,5.36
2019-02-28T03:08:40.750Z,5.35
2019-02-28T03:09:43.451Z,5.47
2019-02-28T03:10:40.685Z,5.43
2019-02-28T03:11:40.640Z,5.41
2019-02-28T03:12:40.609Z,5.29
2019-02-28T03:13:43.534Z,5.36
2019-02-28T03:14:40.531Z,5.35
2019-02-28T03:15:40.492Z,5.35
2019-02-28T03:16:40.455Z,5.29
2019-02-28T03:17:46.546Z,5.25
2019-02-28T03:18:40.376Z,5.32
2019-02-28T03:19:40.360Z,5.26
2019-02-28T03:20:42.162Z,5.32
2019-02-28T03:21:40.271Z,5.33
2019-02-28T03:22:40.238Z,5.25
2019-02-28T03:23:40.603Z,5.26
2019-02-28T03:24:40.180Z,5.26
2019-02-28T03:25:40.124Z,5.23
2019-02-28T03:26:41.863Z,5.30
2019-02-28T03:27:40.050Z,5.33
2019-02-28T03:28:40.010Z,5.32
2019-02-28T03:29:43.406Z,5.29
2019-02-28T03:30:39.944Z,5.28
2019-02-28T03:31:39.908Z,5.33
2019-02-28T03:32:42.244Z,5.28
2019-02-28T03:33:39.855Z,5.29
2019-02-28T03:34:39.798Z,5.30
2019-02-28T03:35:43.192Z,5.28
2019-02-28T03:36:39.722Z,5.35
2019-02-28T03:37:39.690Z,5.35
2019-02-28T03:38:39.644Z,5.32
2019-02-28T03:39:39.614Z,5.29
2019-02-28T03:40:41.122Z,5.26
2019-02-28T03:41:39.534Z,5.30
2019-02-28T03:42:39.508Z,5.29
2019-02-28T03:43:43.817Z,5.32
2019-02-28T03:44:39.428Z,5.30
2019-02-28T03:45:39.394Z,5.35
2019-02-28T03:46:39.356Z,5.32
2019-02-28T03:47:39.317Z,5.36
2019-02-28T03:48:39.278Z,5.30
2019-02-28T03:49:39.254Z,5.47
2019-02-28T03:50:39.203Z,5.36
2019-02-28T03:51:39.171Z,5.38
2019-02-28T03:52:43.896Z,5.36
2019-02-28T03:53:39.098Z,5.41
2019-02-28T03:54:39.058Z,5.41
2019-02-28T03:55:40.849Z,5.41
2019-02-28T03:56:38.990Z,5.41
2019-02-28T03:57:38.943Z,5.50
2019-02-28T03:58:42.811Z,5.44
2019-02-28T03:59:38.867Z,5.41
2019-02-28T04:00:38.836Z,5.43
2019-02-28T04:01:44.804Z,5.41
2019-02-28T04:02:38.768Z,5.46
2019-02-28T04:03:38.738Z,5.44
2019-02-28T04:04:38.693Z,5.39
2019-02-28T04:05:38.652Z,5.29
2019-02-28T04:06:40.840Z,5.48
2019-02-28T04:07:38.582Z,5.38
2019-02-28T04:08:38.537Z,5.35
2019-02-28T04:09:43.769Z,5.32
2019-02-28T04:10:38.472Z,5.35
2019-02-28T04:11:38.434Z,5.30
2019-02-28T04:12:44.897Z,5.26
2019-02-28T04:13:38.356Z,5.32
2019-02-28T04:14:38.331Z,5.33
2019-02-28T04:15:38.285Z,5.32
2019-02-28T04:16:38.248Z,5.30
2019-02-28T04:17:38.218Z,5.32
2019-02-28T04:18:44.187Z,5.26
2019-02-28T04:19:38.139Z,5.30
2019-02-28T04:20:38.153Z,5.29
2019-02-28T04:21:38.058Z,5.25
2019-02-28T04:22:38.040Z,5.20
2019-02-28T04:23:38.002Z,5.20
2019-02-28T04:24:37.956Z,5.10
2019-02-28T04:25:37.918Z,5.21
2019-02-28T04:26:37.887Z,5.11
2019-02-28T04:27:40.211Z,5.04
2019-02-28T04:28:37.803Z,5.08
2019-02-28T04:29:37.767Z,5.04
2019-02-28T04:30:42.412Z,4.97
2019-02-28T04:31:37.734Z,4.93
2019-02-28T04:32:37.671Z,4.97
2019-02-28T04:33:39.167Z,5.00
2019-02-28T04:34:37.594Z,4.93
2019-02-28T04:35:37.559Z,4.94
2019-02-28T04:36:37.505Z,4.93
2019-02-28T04:37:41.268Z,4.96
2019-02-28T04:38:37.436Z,4.86
2019-02-28T04:39:37.392Z,4.90
2019-02-28T04:40:37.366Z,4.84
2019-02-28T04:41:37.337Z,4.96
2019-02-28T04:42:37.342Z,4.97
2019-02-28T04:43:37.245Z,4.84
2019-02-28T04:44:37.224Z,4.93
2019-02-28T04:45:37.184Z,4.87
2019-02-28T04:46:37.148Z,4.82
2019-02-28T04:47:40.284Z,4.86
2019-02-28T04:48:37.066Z,4.93
2019-02-28T04:49:37.035Z,4.86
2019-02-28T04:50:36.989Z,4.89
2019-02-28T04:51:39.895Z,4.92
2019-02-28T04:52:36.921Z,4.90
2019-02-28T04:53:36.894Z,4.92
2019-02-28T04:54:36.843Z,4.86
2019-02-28T04:55:37.223Z,4.92
2019-02-28T04:56:36.769Z,4.84
2019-02-28T04:57:36.724Z,4.86
2019-02-28T04:58:36.686Z,4.87
2019-02-28T04:59:36.650Z,4.78
2019-02-28T05:00:37.870Z,4.75
2019-02-28T05:01:36.575Z,4.67
2019-02-28T05:02:36.541Z,4.59
2019-02-28T05:03:36.509Z,4.70
2019-02-28T05:04:36.836Z,4.71
2019-02-28T05:05:36.440Z,4.58
2019-02-28T05:06:36.396Z,4.56
2019-02-28T05:07:36.365Z,4.60
2019-02-28T05:08:38.981Z,4.60
2019-02-28T05:09:36.281Z,4.60
2019-02-28T05:10:36.255Z,4.56
2019-02-28T05:11:36.221Z,4.55
2019-02-28T05:12:39.504Z,4.59
2019-02-28T05:13:36.132Z,4.52
2019-02-28T05:14:36.096Z,4.58
2019-02-28T05:15:38.208Z,4.52
2019-02-28T05:16:36.021Z,4.52
2019-02-28T05:17:35.995Z,4.52
2019-02-28T05:18:35.950Z,4.59
2019-02-28T05:19:36.590Z,4.52
2019-02-28T05:20:35.871Z,4.56
2019-02-28T05:21:35.837Z,4.50
2019-02-28T05:22:35.800Z,4.48
2019-02-28T05:23:36.729Z,4.48
2019-02-28T05:24:35.735Z,4.49
2019-02-28T05:25:35.682Z,4.48
2019-02-28T05:26:35.653Z,4.48
2019-02-28T05:27:36.390Z,4.45
2019-02-28T05:28:40.336Z,4.50
2019-02-28T05:29:35.555Z,4.44
2019-02-28T05:30:35.492Z,4.45
2019-02-28T05:31:35.475Z,4.42
2019-02-28T05:32:36.325Z,4.45
2019-02-28T05:33:38.435Z,4.50
2019-02-28T05:34:35.354Z,4.52
2019-02-28T05:35:35.317Z,4.40
2019-02-28T05:36:37.916Z,4.40
2019-02-28T05:37:35.241Z,4.41
2019-02-28T05:38:35.213Z,4.48
2019-02-28T05:39:35.162Z,4.44
2019-02-28T05:40:40.376Z,4.45
2019-02-28T05:41:36.271Z,4.53
2019-02-28T05:42:35.047Z,4.50
2019-02-28T05:43:35.026Z,4.45
2019-02-28T05:44:37.413Z,4.50
2019-02-28T05:45:34.944Z,4.41
2019-02-28T05:46:34.906Z,4.52
2019-02-28T05:47:45.755Z,4.52
2019-02-28T05:48:35.237Z,4.42
2019-02-28T05:49:34.787Z,4.52
2019-02-28T05:50:34.761Z,4.60
2019-02-28T05:51:34.720Z,4.60
2019-02-28T05:52:34.679Z,4.60
2019-02-28T05:53:34.648Z,4.62
2019-02-28T05:54:34.612Z,4.63
2019-02-28T05:55:34.565Z,4.58
2019-02-28T05:56:34.532Z,4.52
2019-02-28T05:57:34.492Z,4.58
2019-02-28T05:58:34.459Z,4.59
2019-02-28T05:59:34.420Z,4.59
2019-02-28T06:00:36.960Z,4.59
2019-02-28T06:01:34.347Z,4.62
2019-02-28T06:02:34.305Z,4.70
2019-02-28T06:03:34.288Z,4.58
2019-02-28T06:04:37.134Z,4.62
2019-02-28T06:05:34.198Z,4.63
2019-02-28T06:06:34.160Z,4.74
2019-02-28T06:07:34.115Z,4.74
2019-02-28T06:08:35.553Z,4.63
2019-02-28T06:09:34.049Z,4.59
2019-02-28T06:10:34.014Z,4.58
2019-02-28T06:11:35.485Z,4.70
2019-02-28T06:12:33.939Z,4.63
2019-02-28T06:13:33.888Z,4.67
2019-02-28T06:14:33.858Z,4.71
2019-02-28T06:15:34.210Z,4.56
2019-02-28T06:16:33.785Z,4.74
2019-02-28T06:17:33.743Z,4.70
2019-02-28T06:18:33.709Z,4.74
2019-02-28T06:19:33.689Z,4.74
2019-02-28T06:20:33.635Z,4.56
2019-02-28T06:21:33.600Z,4.70
2019-02-28T06:22:36.208Z,4.58
2019-02-28T06:23:33.525Z,4.62
2019-02-28T06:24:33.483Z,4.59
2019-02-28T06:25:33.450Z,4.66
2019-02-28T06:26:33.414Z,4.59
2019-02-28T06:27:41.226Z,4.71
2019-02-28T06:28:33.338Z,4.58
2019-02-28T06:29:33.300Z,4.73
2019-02-28T06:30:33.267Z,4.67
2019-02-28T06:31:34.472Z,4.70
2019-02-28T06:32:33.195Z,4.71
2019-02-28T06:33:33.581Z,4.73
2019-02-28T06:34:33.446Z,4.82
2019-02-28T06:35:33.086Z,4.84
2019-02-28T06:36:33.039Z,4.70
2019-02-28T06:37:35.404Z,4.70
2019-02-28T06:38:32.961Z,4.75
2019-02-28T06:39:32.926Z,4.87
2019-02-28T06:40:33.731Z,4.80
2019-02-28T06:41:32.856Z,4.82
2019-02-28T06:42:32.814Z,4.92
2019-02-28T06:43:32.789Z,4.92
2019-02-28T06:44:32.747Z,4.92
2019-02-28T06:45:36.701Z,4.84
2019-02-28T06:46:32.672Z,4.97
2019-02-28T06:47:32.632Z,4.96
2019-02-28T06:48:32.602Z,4.87
2019-02-28T06:49:32.570Z,4.93
2019-02-28T06:50:32.511Z,4.94
2019-02-28T06:51:32.477Z,4.97
2019-02-28T06:52:32.440Z,4.92
2019-02-28T06:53:33.963Z,5.04
2019-02-28T06:54:32.372Z,5.08
2019-02-28T06:55:32.337Z,5.07
2019-02-28T06:56:32.302Z,5.11
2019-02-28T06:57:33.056Z,5.04
2019-02-28T06:58:33.270Z,5.04
2019-02-28T06:59:32.178Z,5.07
2019-02-28T07:00:32.149Z,5.14
2019-02-28T07:01:32.105Z,5.21
2019-02-28T07:02:32.253Z,5.20
2019-02-28T07:03:32.046Z,5.25
2019-02-28T07:04:31.994Z,5.33
2019-02-28T07:05:31.969Z,5.33
2019-02-28T07:06:35.706Z,5.30
2019-02-28T07:07:31.898Z,5.29
2019-02-28T07:08:31.857Z,5.33
2019-02-28T07:09:33.642Z,5.29
2019-02-28T07:10:31.772Z,5.33
2019-02-28T07:11:31.742Z,5.44
2019-02-28T07:12:33.128Z,5.44
2019-02-28T07:13:31.661Z,5.44
2019-02-28T07:14:31.634Z,5.48
2019-02-28T07:15:31.598Z,5.43
2019-02-28T07:16:34.608Z,5.44
2019-02-28T07:17:31.518Z,5.41
2019-02-28T07:18:31.478Z,5.50
2019-02-28T07:19:31.447Z,5.43
2019-02-28T07:20:35.132Z,5.56
2019-02-28T07:21:31.364Z,5.68
2019-02-28T07:22:31.334Z,5.62
2019-02-28T07:23:31.297Z,5.62
2019-02-28T07:24:31.257Z,5.54
2019-02-28T07:25:33.045Z,5.69
2019-02-28T07:26:31.184Z,5.71
2019-02-28T07:27:31.159Z,5.72
2019-02-28T07:28:36.296Z,5.72
2019-02-28T07:29:32.113Z,5.72
2019-02-28T07:30:31.045Z,5.86
2019-02-28T07:31:31.005Z,5.76
2019-02-28T07:32:31.375Z,5.84
2019-02-28T07:33:30.920Z,5.79
2019-02-28T07:34:30.899Z,5.83
2019-02-28T07:35:34.188Z,5.84
2019-02-28T07:36:30.833Z,5.93
2019-02-28T07:37:30.789Z,5.86
2019-02-28T07:38:30.744Z,5.84
2019-02-28T07:39:30.709Z,6.04
2019-02-28T07:40:30.664Z,5.99
2019-02-28T07:41:30.634Z,6.04
2019-02-28T07:42:33.600Z,6.01
2019-02-28T07:43:30.571Z,6.02
2019-02-28T07:44:30.529Z,6.04
2019-02-28T07:45:33.107Z,6.17
2019-02-28T07:46:30.463Z,6.09
2019-02-28T07:47:30.416Z,6.11
2019-02-28T07:48:30.374Z,6.19
2019-02-28T07:49:35.869Z,6.24
2019-02-28T07:50:30.311Z,6.27
2019-02-28T07:51:30.275Z,6.31
2019-02-28T07:52:33.434Z,6.42
2019-02-28T07:53:30.207Z,6.44
2019-02-28T07:54:31.309Z,6.48
2019-02-28T07:55:30.392Z,6.54
2019-02-28T07:56:30.094Z,6.54
2019-02-28T07:57:30.072Z,6.64
2019-02-28T07:58:33.376Z,6.63
2019-02-28T07:59:29.985Z,6.69
2019-02-28T08:00:29.951Z,6.70
2019-02-28T08:01:29.909Z,6.78
2019-02-28T08:02:29.875Z,6.84
2019-02-28T08:03:29.837Z,6.92
2019-02-28T08:04:29.815Z,6.87
2019-02-28T08:05:30.969Z,6.95
2019-02-28T08:06:29.749Z,7.05
2019-02-28T08:07:29.692Z,7.10
2019-02-28T08:08:29.666Z,7.07
2019-02-28T08:09:29.621Z,7.13
2019-02-28T08:10:29.589Z,7.23
2019-02-28T08:11:29.557Z,7.15
2019-02-28T08:12:30.903Z,7.33
2019-02-28T08:13:29.483Z,7.36
2019-02-28T08:14:29.453Z,7.47
2019-02-28T08:15:29.408Z,7.48
2019-02-28T08:16:30.634Z,7.42
2019-02-28T08:17:29.322Z,7.57
2019-02-28T08:18:31.563Z,7.70
2019-02-28T08:19:29.272Z,7.76
2019-02-28T08:20:30.628Z,7.82
2019-02-28T08:21:29.192Z,7.88
2019-02-28T08:22:29.163Z,7.88
2019-02-28T08:23:30.210Z,8.05
2019-02-28T08:24:29.087Z,8.03
2019-02-28T08:25:29.055Z,8.15
2019-02-28T08:26:29.015Z,8.19
2019-02-28T08:27:28.988Z,8.36
2019-02-28T08:28:29.603Z,8.37
2019-02-28T08:29:28.923Z,8.37
2019-02-28T08:30:28.899Z,8.49
2019-02-28T08:31:31.967Z,8.56
2019-02-28T08:32:28.813Z,8.64
2019-02-28T08:33:28.771Z,8.73
2019-02-28T08:34:28.732Z,8.89
2019-02-28T08:35:33.976Z,8.95
2019-02-28T08:36:28.692Z,9.02
2019-02-28T08:37:28.628Z,9.06
2019-02-28T08:38:30.162Z,9.10
2019-02-28T08:39:28.562Z,9.26
2019-02-28T08:40:28.519Z,9.32
2019-02-28T08:41:28.488Z,9.47
2019-02-28T08:42:28.463Z,9.48
2019-02-28T08:43:28.424Z,9.59
2019-02-28T08:44:28.382Z,9.61
2019-02-28T08:45:32.665Z,9.72
2019-02-28T08:46:28.317Z,9.73
2019-02-28T08:47:28.283Z,9.84
2019-02-28T08:48:31.512Z,10.02
2019-02-28T08:49:28.204Z,9.87
2019-02-28T08:50:28.181Z,10.02
2019-02-28T08:51:31.012Z,10.16
2019-02-28T08:52:28.117Z,10.17
2019-02-28T08:53:28.082Z,10.25
2019-02-28T08:54:28.042Z,10.26
2019-02-28T08:55:29.254Z,10.33
2019-02-28T08:56:27.979Z,10.37
2019-02-28T08:57:27.951Z,10.48
2019-02-28T08:58:27.910Z,10.56
2019-02-28T08:59:27.885Z,10.63
2019-02-28T09:00:32.853Z,10.63
2019-02-28T09:01:27.803Z,10.78
2019-02-28T09:02:27.770Z,10.86
2019-02-28T09:03:28.081Z,10.86
2019-02-28T09:04:27.714Z,10.93
2019-02-28T09:05:29.919Z,11.00
2019-02-28T09:06:27.682Z,11.08
2019-02-28T09:07:27.615Z,11.11
2019-02-28T09:08:27.575Z,11.23
2019-02-28T09:09:27.533Z,11.30
2019-02-28T09:10:27.499Z,11.40
2019-02-28T09:11:27.473Z,11.44
2019-02-28T09:12:29.930Z,11.54
2019-02-28T09:13:27.404Z,11.62
2019-02-28T09:14:27.375Z,11.68
2019-02-28T09:15:31.070Z,11.69
2019-02-28T09:16:27.321Z,11.81
2019-02-28T09:17:27.266Z,11.91
2019-02-28T09:18:27.242Z,11.99
2019-02-28T09:19:27.208Z,12.12
2019-02-28T09:20:27.178Z,12.18
2019-02-28T09:21:27.145Z,12.20
2019-02-28T09:22:28.046Z,12.31
2019-02-28T09:23:27.079Z,12.49
2019-02-28T09:24:27.057Z,12.67
2019-02-28T09:25:27.180Z,12.58
2019-02-28T09:26:28.278Z,12.78
2019-02-28T09:27:26.949Z,12.82
2019-02-28T09:28:26.921Z,12.95
2019-02-28T09:29:26.885Z,13.05
2019-02-28T09:30:29.676Z,13.22
2019-02-28T09:31:26.826Z,13.31
2019-02-28T09:32:26.794Z,13.35
2019-02-28T09:33:26.755Z,13.42
2019-02-28T09:34:26.731Z,13.47
2019-02-28T09:35:26.697Z,13.63
2019-02-28T09:36:26.656Z,13.65
2019-02-28T09:37:29.490Z,13.68
2019-02-28T09:38:26.605Z,13.74
2019-02-28T09:39:26.577Z,13.70
2019-02-28T09:40:29.636Z,13.86
2019-02-28T09:41:26.508Z,13.92
2019-02-28T09:42:26.472Z,14.00
2019-02-28T09:43:26.436Z,13.99
2019-02-28T09:44:26.413Z,14.04
2019-02-28T09:45:26.381Z,14.18
2019-02-28T09:46:26.347Z,14.22
2019-02-28T09:47:26.559Z,14.22
2019-02-28T09:48:26.287Z,14.20
2019-02-28T09:49:26.263Z,14.29
2019-02-28T09:50:26.221Z,14.43
2019-02-28T09:51:26.202Z,14.33
2019-02-28T09:52:26.152Z,14.43
2019-02-28T09:53:26.138Z,14.43
2019-02-28T09:54:26.096Z,14.41
2019-02-28T09:55:26.072Z,14.50
2019-02-28T09:56:26.043Z,14.51
2019-02-28T09:57:26.028Z,14.54
2019-02-28T09:58:26.160Z,14.55
2019-02-28T09:59:25.944Z,14.60
2019-02-28T10:00:27.489Z,14.63
2019-02-28T10:01:25.889Z,14.69
2019-02-28T10:02:25.863Z,14.77
2019-02-28T10:03:25.821Z,14.81
2019-02-28T10:04:27.407Z,14.70
2019-02-28T10:05:25.767Z,14.81
2019-02-28T10:06:25.737Z,14.92
2019-02-28T10:07:26.454Z,14.99
2019-02-28T10:08:25.673Z,15.09
2019-02-28T10:09:25.642Z,15.11
2019-02-28T10:10:25.613Z,15.00
2019-02-28T10:11:31.167Z,14.97
2019-02-28T10:12:25.549Z,14.81
2019-02-28T10:13:25.526Z,14.72
2019-02-28T10:14:25.631Z,14.82
2019-02-28T10:15:25.481Z,15.02
2019-02-28T10:16:25.444Z,14.88
2019-02-28T10:17:25.922Z,14.68
2019-02-28T10:18:25.393Z,14.62
2019-02-28T10:19:25.352Z,14.54
2019-02-28T10:20:27.073Z,14.45
2019-02-28T10:21:25.440Z,14.50
2019-02-28T10:22:25.248Z,14.48
2019-02-28T10:23:25.223Z,14.51
2019-02-28T10:24:25.193Z,14.60
2019-02-28T10:25:25.165Z,14.48
2019-02-28T10:26:25.126Z,14.50
2019-02-28T10:27:26.957Z,14.60
2019-02-28T10:28:25.074Z,14.58
2019-02-28T10:29:25.039Z,14.66
2019-02-28T10:30:31.881Z,14.58
2019-02-28T10:31:35.211Z,14.66
2019-02-28T10:32:24.949Z,14.68
2019-02-28T10:33:24.917Z,14.72
2019-02-28T10:34:26.402Z,14.69
2019-02-28T10:35:24.863Z,14.70
2019-02-28T10:36:24.833Z,14.81
2019-02-28T10:37:24.804Z,14.68
2019-02-28T10:38:24.765Z,14.72
2019-02-28T10:39:24.734Z,14.58
2019-02-28T10:40:24.703Z,14.55
2019-02-28T10:41:28.130Z,14.55
2019-02-28T10:42:24.649Z,14.51
2019-02-28T10:43:24.615Z,14.51
2019-02-28T10:44:30.329Z,14.60
2019-02-28T10:45:24.559Z,14.55
2019-02-28T10:46:24.525Z,14.70
2019-02-28T10:47:28.116Z,14.85
2019-02-28T10:48:24.473Z,14.85
2019-02-28T10:49:24.903Z,14.91
2019-02-28T10:50:25.848Z,15.02
2019-02-28T10:51:24.376Z,15.15
2019-02-28T10:52:27.264Z,15.15
2019-02-28T10:53:24.319Z,15.39
2019-02-28T10:54:24.275Z,15.62
2019-02-28T10:55:24.271Z,15.61
2019-02-28T10:56:24.230Z,15.90
2019-02-28T10:57:24.205Z,16.17
2019-02-28T10:58:24.173Z,16.13
2019-02-28T10:59:24.404Z,16.32
2019-02-28T11:00:24.119Z,16.13
2019-02-28T11:01:24.092Z,16.28
2019-02-28T11:02:24.051Z,16.49
2019-02-28T11:03:24.020Z,16.54
2019-02-28T11:04:24.011Z,16.69
2019-02-28T11:05:23.970Z,16.49
2019-02-28T11:06:25.284Z,16.49
2019-02-28T11:07:23.915Z,16.17
2019-02-28T11:08:23.885Z,16.24
2019-02-28T11:09:25.545Z,16.29
2019-02-28T11:10:23.826Z,16.69
2019-02-28T11:11:23.800Z,16.57
2019-02-28T11:12:23.934Z,16.86
2019-02-28T11:13:23.745Z,16.83
2019-02-28T11:14:23.717Z,16.96
2019-02-28T11:15:23.691Z,16.93
2019-02-28T11:16:24.466Z,16.64
2019-02-28T11:17:23.630Z,16.71
2019-02-28T11:18:23.610Z,17.19
2019-02-28T11:19:23.575Z,17.09
2019-02-28T11:20:26.249Z,17.51
2019-02-28T11:21:23.516Z,17.54
2019-02-28T11:22:23.496Z,17.95
2019-02-28T11:23:23.465Z,18.03
2019-02-28T11:24:24.567Z,17.98
2019-02-28T11:25:23.412Z,18.03
2019-02-28T11:26:23.391Z,18.01
2019-02-28T11:27:23.359Z,17.63
2019-02-28T11:28:27.960Z,17.46
2019-02-28T11:29:23.308Z,17.41
2019-02-28T11:30:23.280Z,17.76
2019-02-28T11:31:23.261Z,17.34
2019-02-28T11:32:23.229Z,17.95
2019-02-28T11:33:23.208Z,17.94
2019-02-28T11:34:23.178Z,17.78
2019-02-28T11:35:23.917Z,18.34
2019-02-28T11:36:23.122Z,18.75
2019-02-28T11:37:23.106Z,18.58
2019-02-28T11:38:23.068Z,18.73
2019-02-28T11:39:23.056Z,18.60
2019-02-28T11:40:23.023Z,18.59
2019-02-28T11:41:23.003Z,18.49
2019-02-28T11:42:24.608Z,18.77
2019-02-28T11:43:22.953Z,19.24
2019-02-28T11:44:22.918Z,19.27
2019-02-28T11:45:25.353Z,19.36
2019-02-28T11:46:22.863Z,19.04
2019-02-28T11:47:23.399Z,18.86
2019-02-28T11:48:22.821Z,19.15
2019-02-28T11:49:25.615Z,19.37
2019-02-28T11:50:22.781Z,19.77
2019-02-28T11:51:22.744Z,19.09
2019-02-28T11:52:24.499Z,19.44
2019-02-28T11:53:22.708Z,19.82
2019-02-28T11:54:22.676Z,19.76
2019-02-28T11:55:22.654Z,19.96
2019-02-28T11:56:25.559Z,19.31
2019-02-28T11:57:22.603Z,19.40
2019-02-28T11:58:22.603Z,19.37
2019-02-28T11:59:24.228Z,19.58
2019-02-28T12:00:22.538Z,19.59
2019-02-28T12:01:22.512Z,19.40
2019-02-28T12:02:22.479Z,19.54
2019-02-28T12:03:22.459Z,19.99
2019-02-28T12:04:22.439Z,19.88
2019-02-28T12:05:22.399Z,20.04
2019-02-28T12:06:25.476Z,19.94
2019-02-28T12:07:22.364Z,19.62
2019-02-28T12:08:22.514Z,19.16
2019-02-28T12:09:22.328Z,18.96
2019-02-28T12:10:22.291Z,18.45
2019-02-28T12:11:22.259Z,18.60
2019-02-28T12:12:22.239Z,18.44
2019-02-28T12:13:22.223Z,18.71
2019-02-28T12:14:22.195Z,18.90
2019-02-28T12:15:22.706Z,19.27
2019-02-28T12:16:22.146Z,19.59
2019-02-28T12:17:22.115Z,18.95
2019-02-28T12:18:22.096Z,18.84
2019-02-28T12:19:22.090Z,19.36
2019-02-28T12:20:25.788Z,19.07
2019-02-28T12:21:22.020Z,18.96
2019-02-28T12:22:22.015Z,18.44
2019-02-28T12:23:23.528Z,18.49
2019-02-28T12:24:21.950Z,17.98
2019-02-28T12:25:21.929Z,18.38
2019-02-28T12:26:21.894Z,18.40
2019-02-28T12:27:24.378Z,17.98
2019-02-28T12:28:21.844Z,17.52
2019-02-28T12:29:21.821Z,17.15
2019-02-28T12:30:22.025Z,17.01
2019-02-28T12:31:21.773Z,16.72
2019-02-28T12:32:21.751Z,17.06
2019-02-28T12:33:23.391Z,16.57
2019-02-28T12:34:21.695Z,16.86
2019-02-28T12:35:21.673Z,16.99
2019-02-28T12:36:21.636Z,16.64
2019-02-28T12:37:22.264Z,16.36
2019-02-28T12:38:21.589Z,16.29
2019-02-28T12:39:23.594Z,16.28
2019-02-28T12:40:21.540Z,16.13
2019-02-28T12:41:24.829Z,16.00
2019-02-28T12:42:21.480Z,15.77
2019-02-28T12:43:21.456Z,15.54
2019-02-28T12:44:21.427Z,15.18
2019-02-28T12:45:24.435Z,15.11
2019-02-28T12:46:21.369Z,14.96
2019-02-28T12:47:21.341Z,14.97
2019-02-28T12:48:21.317Z,14.60
2019-02-28T12:49:22.435Z,15.09
2019-02-28T12:50:21.269Z,14.99
2019-02-28T12:51:21.233Z,14.69
2019-02-28T12:52:21.200Z,14.28
2019-02-28T12:53:24.319Z,14.03
2019-02-28T12:54:21.148Z,13.74
2019-02-28T12:55:21.117Z,13.74
2019-02-28T12:56:21.096Z,13.72
2019-02-28T12:57:22.374Z,13.42
2019-02-28T12:58:21.030Z,13.42
2019-02-28T12:59:20.998Z,13.23
2019-02-28T13:00:23.383Z,13.20
2019-02-28T13:01:20.949Z,12.95
2019-02-28T13:02:20.906Z,13.00
2019-02-28T13:03:21.208Z,13.00
2019-02-28T13:04:20.855Z,13.04
2019-02-28T13:05:20.823Z,12.98
2019-02-28T13:06:23.884Z,12.95
2019-02-28T13:07:20.758Z,12.83
2019-02-28T13:08:20.734Z,12.78
2019-02-28T13:09:20.701Z,12.64